Lakes Entrance Composite, Australia
Current Conditions -  °F | °C
As of 1:00 PM on Thursday 23 Oct 2014 (Local Time) from YCOM Reporting Station
Clear Clear  
Wind Chill: 75°   Ceiling: Unl
Heat Index: 75°   Visibility: 6mi
Dew Point: 46°   Wind: 7mph
Humidity: 36%   Direction: 20°NNE
Pressure: 30.12"   Gusts: NA
Location:  37.87°S, 147.98°E
Report Text: YCOM 230200Z AUTO 02006KT 340V040 9999 // NCD 24/08 Q1020
Loading
Personal Weather Stations






























Interactive Weather Map
Tropical Storm Tracking
New forecast layout! Learn more

10-Day Weather Forecast

Advertisements
Track Severe Weather on mobile